Severinia, Brazil
Current Conditions -  °F | °C
As of 11:00 PM on Sunday 21 Dec 2014 (Local Time) from SBSR Reporting Station
Light Rain Light Rain  
Wind Chill: 73°   Ceiling: 600
Heat Index: 73°   Visibility: 5mi
Dew Point: 70°   Wind: 5mph
Humidity: 88%   Direction: 40°NE
Pressure: 29.94"   Gusts: NA
Location:  20.81°S, 48.8°W
Report Text: SBSR 220100Z 04004KT 8000 -RA OVC006 23/21 Q1014
Loading
Personal Weather Stations






























Interactive Weather Map New forecast layout! Learn more

10-Day Weather Forecast

Advertisements
Track Severe Weather on mobile